Putnam, Virginia
Current Conditions -  °F | °C
As of 2:15 AM on Saturday 20 Dec 2014 (Local Time) from KJFZ Reporting Station
Clear Clear  
Wind Chill: 22°   Ceiling: Unl
Heat Index: 28°   Visibility: 10mi
Dew Point: 22°   Wind: 5mph
Humidity: 80%   Direction: 20°NNE
Pressure: 30.11"   Gusts: NA
Location:  37.0328°N, 82.0042°W
Report Text: KJFZ 200715Z AUTO 02004KT 10SM CLR M02/M05 A3011 RMK AO2 T10251055
Loading
Personal Weather Stations






























Interactive Weather Map New forecast layout! Learn more

10-Day Weather Forecast

Advertisements
Track Severe Weather on mobile